createdAt,value
2022-09-30T00:01:26.834Z,56.76
2022-09-30T00:03:55.340Z,56.67
2022-09-30T00:06:26.050Z,56.65
2022-09-30T00:08:53.933Z,57.04
2022-09-30T00:11:25.454Z,56.92
2022-09-30T00:13:53.788Z,56.64
2022-09-30T00:16:23.794Z,56.23
2022-09-30T00:18:53.003Z,56.05
2022-09-30T00:21:20.273Z,56.27
2022-09-30T00:23:49.087Z,56.56
2022-09-30T00:26:20.881Z,56.36
2022-09-30T00:28:51.658Z,56.84
2022-09-30T00:31:21.795Z,57.09
2022-09-30T00:34:06.930Z,57.11
2022-09-30T00:36:38.067Z,57.10
2022-09-30T00:39:09.231Z,56.86
2022-09-30T00:41:37.681Z,56.56
2022-09-30T00:44:50.894Z,56.86
2022-09-30T00:47:45.112Z,56.70
2022-09-30T00:50:36.398Z,56.50
2022-09-30T00:53:14.507Z,56.27
2022-09-30T00:55:54.442Z,56.85
2022-09-30T00:58:30.512Z,56.77
2022-09-30T01:01:01.797Z,56.87
2022-09-30T01:03:32.109Z,56.93
2022-09-30T01:05:59.494Z,56.64
2022-09-30T01:08:28.618Z,56.65
2022-09-30T01:10:57.243Z,56.99
2022-09-30T01:13:28.789Z,56.58
2022-09-30T01:16:31.932Z,56.58
2022-09-30T01:19:39.219Z,56.57
2022-09-30T01:22:26.111Z,56.77
2022-09-30T01:25:47.014Z,56.92
2022-09-30T01:29:05.666Z,56.80
2022-09-30T01:31:54.180Z,57.03
2022-09-30T01:34:38.785Z,56.78
2022-09-30T01:37:20.302Z,56.77
2022-09-30T01:40:02.946Z,56.97
2022-09-30T01:42:45.607Z,56.77
2022-09-30T01:45:20.653Z,57.24
2022-09-30T01:47:57.962Z,57.24
2022-09-30T01:50:36.828Z,57.46
2022-09-30T01:53:15.649Z,57.78
2022-09-30T01:55:51.097Z,57.15
2022-09-30T01:58:35.119Z,57.03
2022-09-30T02:01:10.238Z,57.16
2022-09-30T02:03:48.074Z,57.43
2022-09-30T02:06:22.509Z,57.24
2022-09-30T02:08:58.577Z,57.93
2022-09-30T02:11:29.858Z,57.95
2022-09-30T02:14:05.019Z,57.67
2022-09-30T02:16:39.928Z,57.60
2022-09-30T02:19:18.849Z,57.33
2022-09-30T02:21:56.172Z,57.47
2022-09-30T02:24:27.220Z,57.90
2022-09-30T02:27:01.254Z,58.46
2022-09-30T02:29:36.902Z,58.76
2022-09-30T02:32:13.914Z,59.13
2022-09-30T02:34:48.917Z,59.68
2022-09-30T02:37:21.713Z,60.19
2022-09-30T02:39:57.656Z,60.43
2022-09-30T02:42:28.913Z,61.02
2022-09-30T02:45:01.935Z,60.62
2022-09-30T02:47:41.687Z,60.72
2022-09-30T02:50:21.110Z,61.08
2022-09-30T02:53:10.634Z,61.28
2022-09-30T02:55:58.104Z,61.50
2022-09-30T02:58:26.182Z,61.47
2022-09-30T03:00:54.946Z,61.42
2022-09-30T03:03:28.029Z,61.46
2022-09-30T03:05:56.977Z,61.53
2022-09-30T03:08:24.407Z,61.59
2022-09-30T03:10:52.856Z,61.80
2022-09-30T03:14:14.885Z,61.81
2022-09-30T03:17:14.968Z,61.80
2022-09-30T03:20:14.568Z,62.07
2022-09-30T03:23:19.238Z,62.03
2022-09-30T03:26:00.694Z,62.68
2022-09-30T03:28:35.842Z,62.80
2022-09-30T03:31:14.420Z,62.84
2022-09-30T03:33:52.574Z,62.59
2022-09-30T03:36:32.136Z,62.52
2022-09-30T03:39:13.328Z,62.19
2022-09-30T03:41:49.943Z,62.19
2022-09-30T03:44:25.488Z,62.47
2022-09-30T03:46:58.849Z,62.55
2022-09-30T03:49:32.873Z,62.55
2022-09-30T03:52:06.286Z,62.47
2022-09-30T03:54:38.949Z,62.52
2022-09-30T03:57:07.950Z,62.45
2022-09-30T03:59:35.213Z,62.89
2022-09-30T04:02:03.473Z,62.75
2022-09-30T04:04:30.788Z,62.54
2022-09-30T04:06:58.093Z,63.05
2022-09-30T04:09:27.253Z,62.63
2022-09-30T04:11:55.922Z,62.72
2022-09-30T04:14:23.155Z,62.84
2022-09-30T04:16:53.794Z,62.92
2022-09-30T04:19:21.647Z,62.94
2022-09-30T04:21:53.015Z,62.83
2022-09-30T04:24:20.425Z,62.92
2022-09-30T04:26:48.501Z,62.70
2022-09-30T04:29:17.392Z,62.83
2022-09-30T04:31:44.724Z,62.80
2022-09-30T04:34:12.284Z,62.90
2022-09-30T04:36:39.920Z,62.75
2022-09-30T04:39:07.245Z,62.97
2022-09-30T04:41:34.552Z,63.07
2022-09-30T04:44:06.319Z,63.16
2022-09-30T04:46:36.819Z,62.92
2022-09-30T04:49:08.989Z,62.89
2022-09-30T04:51:38.624Z,62.82
2022-09-30T04:54:06.240Z,62.44
2022-09-30T04:56:33.537Z,62.44
2022-09-30T04:59:00.777Z,62.41
2022-09-30T05:01:28.020Z,62.23
2022-09-30T05:03:56.724Z,61.79
2022-09-30T05:06:24.217Z,61.58
2022-09-30T05:08:51.550Z,61.50
2022-09-30T05:11:21.918Z,61.42
2022-09-30T05:13:51.103Z,61.78
2022-09-30T05:16:19.298Z,61.54
2022-09-30T05:18:47.042Z,61.62
2022-09-30T05:21:20.803Z,61.94
2022-09-30T05:23:53.582Z,61.70
2022-09-30T05:26:20.859Z,61.61
2022-09-30T05:28:48.166Z,61.16
2022-09-30T05:31:15.555Z,60.93
2022-09-30T05:33:42.992Z,60.36
2022-09-30T05:36:15.826Z,60.65
2022-09-30T05:38:43.409Z,60.40
2022-09-30T05:41:13.193Z,59.93
2022-09-30T05:43:42.021Z,60.09
2022-09-30T05:46:09.309Z,59.68
2022-09-30T05:48:36.868Z,59.10
2022-09-30T05:51:04.753Z,58.58
2022-09-30T05:53:38.752Z,58.62
2022-09-30T05:56:07.704Z,58.87
2022-09-30T05:58:35.920Z,58.93
2022-09-30T06:01:13.240Z,59.51
2022-09-30T06:03:41.279Z,59.35
2022-09-30T06:06:09.485Z,59.48
2022-09-30T06:08:38.154Z,60.21
2022-09-30T06:11:11.892Z,60.49
2022-09-30T06:13:42.112Z,60.63
2022-09-30T06:16:12.525Z,60.58
2022-09-30T06:18:41.522Z,61.18
2022-09-30T06:21:12.180Z,60.88
2022-09-30T06:23:41.242Z,60.91
2022-09-30T06:26:14.588Z,61.21
2022-09-30T06:28:42.886Z,61.36
2022-09-30T06:31:11.337Z,61.27
2022-09-30T06:33:39.032Z,61.42
2022-09-30T06:36:07.206Z,61.37
2022-09-30T06:38:40.318Z,61.30
2022-09-30T06:41:09.789Z,61.45
2022-09-30T06:43:40.542Z,61.14
2022-09-30T06:46:30.340Z,60.41
2022-09-30T06:49:13.315Z,60.03
2022-09-30T06:51:42.092Z,57.33
2022-09-30T06:54:10.281Z,56.03
2022-09-30T06:56:39.215Z,54.39
2022-09-30T06:59:07.111Z,53.74
2022-09-30T07:01:34.613Z,53.41
2022-09-30T07:04:08.019Z,53.62
2022-09-30T07:06:35.606Z,54.50
2022-09-30T07:09:03.149Z,55.72
2022-09-30T07:11:30.479Z,56.20
2022-09-30T07:13:59.139Z,56.52
2022-09-30T07:16:26.567Z,56.46
2022-09-30T07:18:54.377Z,56.84
2022-09-30T07:21:21.714Z,56.77
2022-09-30T07:23:49.242Z,56.96
2022-09-30T07:26:19.827Z,57.08
2022-09-30T07:28:48.420Z,56.92
2022-09-30T07:31:32.324Z,56.62
2022-09-30T07:34:01.142Z,56.54
2022-09-30T07:36:33.164Z,56.32
2022-09-30T07:39:05.367Z,56.40
2022-09-30T07:41:35.949Z,56.09
2022-09-30T07:44:05.575Z,56.27
2022-09-30T07:46:39.016Z,56.02
2022-09-30T07:49:12.777Z,56.12
2022-09-30T07:51:45.195Z,55.86
2022-09-30T07:54:16.286Z,55.55
2022-09-30T07:59:35.837Z,55.83
2022-09-30T08:02:06.313Z,55.41
2022-09-30T08:04:34.363Z,55.47
2022-09-30T08:07:03.500Z,54.85
2022-09-30T08:09:31.777Z,55.06
2022-09-30T08:12:04.616Z,54.67
2022-09-30T08:14:32.346Z,54.69
2022-09-30T08:17:00.566Z,54.24
2022-09-30T08:19:30.922Z,54.03
2022-09-30T08:21:58.738Z,53.05
2022-09-30T08:24:27.603Z,52.91
2022-09-30T08:26:55.938Z,50.07
2022-09-30T08:32:11.255Z,48.02
2022-09-30T08:34:39.881Z,47.63
2022-09-30T08:37:09.569Z,45.89
2022-09-30T08:39:37.252Z,45.53
2022-09-30T08:42:49.200Z,45.35
2022-09-30T08:45:30.942Z,46.34
2022-09-30T08:51:06.115Z,45.56
2022-09-30T08:53:40.074Z,45.70
2022-09-30T08:56:11.723Z,44.40
2022-09-30T08:58:45.373Z,42.49
2022-09-30T09:01:23.926Z,41.13
2022-09-30T09:03:51.423Z,40.36
2022-09-30T09:06:34.587Z,38.29
2022-09-30T09:09:18.859Z,37.06
2022-09-30T09:12:02.749Z,34.75
2022-09-30T09:14:43.060Z,33.54
2022-09-30T09:17:32.042Z,32.53
2022-09-30T09:20:10.574Z,31.69
2022-09-30T09:22:39.462Z,31.18
2022-09-30T09:25:13.015Z,31.63
2022-09-30T09:27:51.319Z,30.95
2022-09-30T09:30:21.886Z,29.71
2022-09-30T09:32:55.352Z,28.99
2022-09-30T09:35:42.883Z,26.96
2022-09-30T09:38:27.667Z,27.12
2022-09-30T09:41:19.273Z,25.91
2022-09-30T09:44:00.483Z,25.23
2022-09-30T09:46:34.557Z,24.33
2022-09-30T09:49:35.970Z,23.91
2022-09-30T09:52:49.330Z,23.58
2022-09-30T09:55:22.883Z,23.19
2022-09-30T09:58:07.137Z,23.29
2022-09-30T10:00:46.602Z,23.47
2022-09-30T10:03:21.220Z,24.50
2022-09-30T10:06:04.244Z,23.86
2022-09-30T10:08:34.440Z,24.37
2022-09-30T10:11:06.412Z,24.42
2022-09-30T10:13:44.028Z,23.84
2022-09-30T10:16:30.858Z,22.70
2022-09-30T10:18:59.577Z,23.39
2022-09-30T10:21:29.681Z,23.15
2022-09-30T10:23:58.106Z,24.93
2022-09-30T10:26:28.762Z,25.26
2022-09-30T10:28:59.703Z,26.79
2022-09-30T10:31:30.509Z,27.97
2022-09-30T10:34:04.391Z,29.57
2022-09-30T10:36:34.742Z,30.27
2022-09-30T10:39:07.760Z,31.35
2022-09-30T10:41:38.541Z,31.42
2022-09-30T10:44:15.262Z,32.35
2022-09-30T10:46:45.364Z,33.14
2022-09-30T10:49:27.559Z,33.48
2022-09-30T10:51:56.360Z,34.04
2022-09-30T10:54:49.438Z,34.18
2022-09-30T10:57:23.434Z,34.71
2022-09-30T10:59:54.743Z,35.25
2022-09-30T11:02:34.754Z,35.73
2022-09-30T11:05:15.237Z,35.47
2022-09-30T11:07:52.653Z,35.79
2022-09-30T11:10:33.971Z,35.78
2022-09-30T11:13:13.471Z,35.97
2022-09-30T11:16:03.540Z,35.68
2022-09-30T11:18:38.103Z,36.23
2022-09-30T11:21:15.573Z,36.13
2022-09-30T11:23:50.909Z,36.38
2022-09-30T11:26:35.581Z,36.78
2022-09-30T11:29:35.733Z,36.38
2022-09-30T11:32:17.324Z,36.36
2022-09-30T11:35:02.886Z,36.86
2022-09-30T11:37:55.771Z,36.23
2022-09-30T11:40:37.046Z,36.36
2022-09-30T11:43:18.941Z,36.70
2022-09-30T11:46:26.858Z,35.67
2022-09-30T11:49:18.910Z,33.74
2022-09-30T11:52:02.946Z,33.86
2022-09-30T11:55:02.626Z,32.81
2022-09-30T11:57:37.676Z,33.53
2022-09-30T12:00:14.879Z,34.38
2022-09-30T12:02:48.371Z,34.34
2022-09-30T12:05:24.953Z,34.67
2022-09-30T12:08:00.978Z,33.97
2022-09-30T12:10:36.067Z,33.28
2022-09-30T12:13:12.397Z,32.94
2022-09-30T12:15:44.553Z,31.17
2022-09-30T12:18:17.908Z,31.61
2022-09-30T12:20:53.772Z,32.62
2022-09-30T12:23:30.585Z,33.70
2022-09-30T12:26:01.782Z,34.32
2022-09-30T12:28:57.862Z,34.44
2022-09-30T12:32:11.718Z,33.92
2022-09-30T12:35:04.127Z,33.79
2022-09-30T12:38:03.385Z,34.25
2022-09-30T12:41:02.604Z,34.28
2022-09-30T12:44:27.304Z,33.68
2022-09-30T12:47:20.719Z,33.95
2022-09-30T12:49:51.191Z,34.18
2022-09-30T12:52:22.311Z,34.31
2022-09-30T12:54:57.228Z,34.23
2022-09-30T12:57:28.655Z,34.47
2022-09-30T13:00:02.328Z,34.92
2022-09-30T13:02:37.578Z,34.82
2022-09-30T13:05:54.025Z,35.26
2022-09-30T13:08:44.733Z,35.03
2022-09-30T13:11:40.992Z,35.14
2022-09-30T13:14:34.962Z,35.76
2022-09-30T13:17:28.196Z,35.21
2022-09-30T13:19:57.367Z,34.81
2022-09-30T13:22:57.075Z,35.16
2022-09-30T13:25:24.508Z,35.58
2022-09-30T13:28:26.450Z,35.57
2022-09-30T13:31:15.523Z,35.96
2022-09-30T13:33:46.766Z,36.15
2022-09-30T13:36:30.706Z,35.97
2022-09-30T13:39:27.792Z,34.05
2022-09-30T13:42:12.253Z,34.45
2022-09-30T13:45:03.406Z,33.76
2022-09-30T13:47:39.489Z,33.64
2022-09-30T13:50:18.000Z,32.99
2022-09-30T13:52:53.703Z,33.01
2022-09-30T13:55:29.755Z,32.59
2022-09-30T13:58:29.188Z,33.28
2022-09-30T14:01:22.782Z,33.41
2022-09-30T14:04:33.226Z,33.22
2022-09-30T14:07:14.178Z,32.69
2022-09-30T14:10:13.884Z,31.98
2022-09-30T14:13:05.910Z,32.87
2022-09-30T14:16:12.788Z,33.19
2022-09-30T14:19:07.262Z,33.63
2022-09-30T14:21:41.774Z,33.84
2022-09-30T14:24:17.458Z,33.62
2022-09-30T14:27:09.175Z,34.46
2022-09-30T14:29:53.487Z,34.69
2022-09-30T14:32:29.122Z,35.68
2022-09-30T14:34:58.818Z,36.10
2022-09-30T14:37:31.198Z,36.25
2022-09-30T14:39:59.930Z,36.39
2022-09-30T14:42:33.231Z,36.38
2022-09-30T14:45:05.223Z,36.21
2022-09-30T14:47:38.456Z,36.44
2022-09-30T14:50:14.851Z,36.91
2022-09-30T14:52:45.317Z,36.64
2022-09-30T14:55:25.626Z,37.05
2022-09-30T14:57:54.911Z,36.86
2022-09-30T15:00:31.447Z,36.48
2022-09-30T15:02:59.984Z,36.30
2022-09-30T15:05:28.727Z,36.28
2022-09-30T15:07:56.350Z,36.96
2022-09-30T15:10:25.412Z,37.07
2022-09-30T15:12:55.095Z,37.16
2022-09-30T15:15:36.144Z,36.49
2022-09-30T15:18:43.015Z,36.91
2022-09-30T15:21:14.455Z,36.89
2022-09-30T15:23:46.715Z,37.00
2022-09-30T15:26:15.638Z,37.72
2022-09-30T15:28:43.311Z,37.84
2022-09-30T15:31:24.561Z,37.50
2022-09-30T15:34:03.861Z,37.50
2022-09-30T15:36:35.269Z,37.64
2022-09-30T15:39:05.816Z,37.14
2022-09-30T15:41:41.300Z,37.29
2022-09-30T15:44:18.969Z,37.80
2022-09-30T15:47:05.084Z,37.92
2022-09-30T15:49:45.487Z,38.07
2022-09-30T15:52:36.516Z,38.16
2022-09-30T15:55:41.675Z,38.38
2022-09-30T15:58:37.997Z,38.02
2022-09-30T16:01:22.091Z,38.29
2022-09-30T16:03:54.765Z,38.70
2022-09-30T16:06:28.579Z,38.63
2022-09-30T16:09:01.363Z,38.56
2022-09-30T16:11:35.017Z,38.99
2022-09-30T16:14:06.129Z,38.89
2022-09-30T16:16:36.618Z,39.52
2022-09-30T16:19:05.611Z,39.10
2022-09-30T16:21:50.503Z,39.37
2022-09-30T16:24:46.269Z,39.67
2022-09-30T16:27:39.012Z,39.85
2022-09-30T16:30:07.930Z,40.25
2022-09-30T16:32:41.609Z,39.98
2022-09-30T16:35:19.984Z,40.08
2022-09-30T16:37:48.787Z,40.12
2022-09-30T16:40:24.717Z,40.31
2022-09-30T16:42:55.022Z,40.58
2022-09-30T16:45:22.877Z,40.49
2022-09-30T16:47:50.618Z,40.86
2022-09-30T16:50:33.510Z,40.79
2022-09-30T16:53:00.820Z,40.86
2022-09-30T16:55:29.197Z,41.16
2022-09-30T16:57:59.151Z,41.12
2022-09-30T17:00:28.492Z,41.57
2022-09-30T17:02:55.938Z,41.94
2022-09-30T17:05:25.406Z,41.93
2022-09-30T17:07:56.472Z,41.85
2022-09-30T17:10:28.925Z,42.57
2022-09-30T17:13:03.477Z,42.63
2022-09-30T17:15:33.524Z,42.46
2022-09-30T17:18:04.963Z,42.66
2022-09-30T17:20:32.265Z,42.94
2022-09-30T17:23:02.591Z,43.39
2022-09-30T17:25:32.615Z,43.25
2022-09-30T17:28:01.817Z,43.21
2022-09-30T17:30:29.184Z,43.61
2022-09-30T17:32:56.426Z,43.64
2022-09-30T17:35:23.716Z,43.81
2022-09-30T17:37:51.056Z,43.49
2022-09-30T17:40:36.914Z,43.64
2022-09-30T17:43:08.501Z,43.86
2022-09-30T17:45:38.310Z,43.87
2022-09-30T17:48:07.854Z,44.18
2022-09-30T17:50:36.500Z,44.45
2022-09-30T17:53:05.966Z,44.58
2022-09-30T17:55:33.840Z,44.75
2022-09-30T17:58:03.317Z,44.52
2022-09-30T18:00:32.489Z,44.88
2022-09-30T18:03:00.020Z,45.13
2022-09-30T18:05:27.541Z,45.22
2022-09-30T18:07:54.922Z,45.24
2022-09-30T18:10:22.216Z,45.46
2022-09-30T18:12:51.745Z,45.54
2022-09-30T18:15:20.624Z,45.84
2022-09-30T18:17:49.924Z,45.70
2022-09-30T18:20:20.628Z,45.91
2022-09-30T18:22:50.672Z,46.05
2022-09-30T18:25:20.880Z,46.19
2022-09-30T18:27:49.429Z,46.25
2022-09-30T18:30:18.823Z,46.19
2022-09-30T18:32:49.573Z,46.06
2022-09-30T18:35:20.279Z,46.15
2022-09-30T18:37:49.656Z,46.13
2022-09-30T18:40:18.334Z,46.28
2022-09-30T18:42:46.616Z,46.28
2022-09-30T18:45:14.144Z,46.24
2022-09-30T18:47:43.971Z,46.44
2022-09-30T18:50:14.089Z,46.60
2022-09-30T18:52:41.351Z,46.64
2022-09-30T18:55:09.812Z,46.55
2022-09-30T18:57:37.932Z,46.76
2022-09-30T19:00:10.283Z,46.95
2022-09-30T19:02:41.279Z,46.82
2022-09-30T19:05:09.539Z,47.08
2022-09-30T19:07:41.088Z,46.95
2022-09-30T19:10:12.565Z,46.75
2022-09-30T19:12:44.595Z,47.02
2022-09-30T19:15:17.279Z,47.07
2022-09-30T19:17:45.842Z,47.25
2022-09-30T19:20:15.362Z,47.05
2022-09-30T19:22:44.241Z,47.22
2022-09-30T19:25:12.791Z,47.03
2022-09-30T19:27:42.046Z,47.11
2022-09-30T19:30:12.293Z,47.00
2022-09-30T19:32:40.729Z,46.86
2022-09-30T19:35:11.872Z,47.14
2022-09-30T19:37:43.030Z,47.06
2022-09-30T19:40:21.592Z,47.23
2022-09-30T19:42:49.756Z,47.33
2022-09-30T19:45:24.020Z,47.17
2022-09-30T19:47:52.759Z,47.33
2022-09-30T19:50:20.041Z,47.41
2022-09-30T19:52:55.737Z,47.54
2022-09-30T19:55:26.559Z,47.21
2022-09-30T19:57:54.382Z,47.48
2022-09-30T20:00:22.026Z,47.27
2022-09-30T20:02:50.595Z,47.21
2022-09-30T20:05:18.454Z,47.30
2022-09-30T20:07:45.933Z,47.35
2022-09-30T20:10:14.236Z,47.40
2022-09-30T20:12:43.781Z,47.86
2022-09-30T20:15:29.500Z,47.45
2022-09-30T20:17:56.925Z,47.64
2022-09-30T20:20:36.972Z,47.88
2022-09-30T20:23:04.448Z,47.91
2022-09-30T20:25:33.550Z,47.65
2022-09-30T20:28:04.083Z,47.68
2022-09-30T20:30:32.170Z,47.63
2022-09-30T20:32:59.808Z,47.74
2022-09-30T20:35:27.206Z,47.90
2022-09-30T20:37:54.930Z,47.58
2022-09-30T20:40:22.539Z,47.78
2022-09-30T20:42:51.864Z,48.09
2022-09-30T20:45:20.477Z,47.87
2022-09-30T20:47:48.042Z,47.78
2022-09-30T20:50:35.026Z,48.08
2022-09-30T20:53:08.115Z,48.17
2022-09-30T20:55:39.306Z,48.13
2022-09-30T20:58:08.791Z,47.97
2022-09-30T21:00:41.497Z,47.82
2022-09-30T21:03:12.058Z,47.82
2022-09-30T21:05:40.186Z,47.72
2022-09-30T21:08:07.523Z,47.41
2022-09-30T21:10:37.134Z,47.66
2022-09-30T21:13:10.183Z,47.69
2022-09-30T21:15:39.492Z,47.48
2022-09-30T21:18:07.470Z,47.44
2022-09-30T21:20:35.461Z,47.30
2022-09-30T21:23:03.436Z,47.50
2022-09-30T21:25:31.047Z,47.75
2022-09-30T21:27:58.575Z,47.99
2022-09-30T21:30:27.024Z,47.91
2022-09-30T21:32:55.666Z,47.90
2022-09-30T21:35:22.939Z,47.59
2022-09-30T21:37:50.284Z,47.77
2022-09-30T21:40:19.028Z,47.97
2022-09-30T21:42:46.617Z,47.92
2022-09-30T21:45:14.000Z,47.64
2022-09-30T21:47:41.280Z,47.78
2022-09-30T21:50:10.825Z,47.64
2022-09-30T21:52:39.167Z,47.99
2022-09-30T21:55:07.271Z,47.70
2022-09-30T21:57:34.774Z,48.08
2022-09-30T22:00:03.530Z,47.78
2022-09-30T22:02:30.960Z,47.84
2022-09-30T22:04:59.594Z,47.97
2022-09-30T22:07:28.472Z,47.96
2022-09-30T22:09:55.723Z,48.20
2022-09-30T22:12:23.348Z,47.81
2022-09-30T22:14:50.717Z,47.60
2022-09-30T22:17:18.123Z,47.86
2022-09-30T22:19:45.603Z,47.95
2022-09-30T22:22:12.954Z,47.77
2022-09-30T22:24:41.587Z,47.94
2022-09-30T22:27:09.086Z,47.73
2022-09-30T22:29:36.446Z,47.90
2022-09-30T22:32:03.851Z,47.90
2022-09-30T22:34:49.658Z,47.68
2022-09-30T22:37:35.614Z,47.71
2022-09-30T22:40:04.943Z,47.64
2022-09-30T22:42:32.315Z,47.85
2022-09-30T22:44:59.754Z,47.89
2022-09-30T22:47:27.395Z,47.61
2022-09-30T22:49:54.678Z,47.83
2022-09-30T22:52:21.983Z,47.59
2022-09-30T22:54:49.234Z,47.45
2022-09-30T22:57:18.067Z,47.52
2022-09-30T22:59:46.528Z,47.39
2022-09-30T23:02:15.105Z,47.68
2022-09-30T23:04:44.117Z,47.44
2022-09-30T23:07:11.423Z,47.86
2022-09-30T23:09:38.681Z,47.73
2022-09-30T23:12:06.207Z,47.64
2022-09-30T23:14:34.887Z,47.60
2022-09-30T23:17:02.211Z,47.25
2022-09-30T23:19:29.542Z,47.27
2022-09-30T23:21:56.987Z,47.49
2022-09-30T23:24:24.258Z,47.37
2022-09-30T23:26:51.554Z,47.43
2022-09-30T23:29:18.782Z,47.65
2022-09-30T23:31:48.151Z,47.48
2022-09-30T23:34:17.282Z,47.40
2022-09-30T23:36:44.574Z,47.70
2022-09-30T23:39:18.466Z,47.70
2022-09-30T23:41:46.503Z,47.68
2022-09-30T23:44:15.533Z,47.49
2022-09-30T23:47:02.726Z,47.36
2022-09-30T23:49:38.379Z,47.27
2022-09-30T23:52:11.963Z,47.22
2022-09-30T23:54:40.706Z,47.38
2022-09-30T23:57:08.361Z,47.54
2022-09-30T23:59:35.627Z,47.66
